Time;durP1;ratioP1;P1;durP2;ratioP2;P2;SDS_P1;SDS_P2;PMS_P1;PMS_P2;Temp;Humidity;BMP_temperature;BMP_pressure;BME280_temperature;BME280_humidity;BME280_pressure;Samples;Min_cycle;Max_cycle;Signal;HPM_P1;HPM_P2
2022/01/26 00:06:42;;;;;;;78.43;39.72;;;5.80;99.90;;;;;;4142390;28;20469;-61
2022/01/26 00:08:43;;;;;;;80.13;40.15;;;5.70;99.90;;;;;;4143371;28;20108;-61
2022/01/26 00:10:43;;;;;;;83.28;40.70;;;5.70;99.90;;;;;;4136386;28;20112;-62
2022/01/26 00:12:44;;;;;;;88.50;41.55;;;5.80;99.90;;;;;;4138616;28;20466;-62
2022/01/26 00:14:45;;;;;;;87.25;43.17;;;5.80;99.90;;;;;;4139228;28;20092;-62
2022/01/26 00:16:45;;;;;;;80.90;40.08;;;5.70;99.90;;;;;;4136171;28;20044;-62
2022/01/26 00:18:46;;;;;;;81.82;41.35;;;5.70;99.90;;;;;;4137489;28;20099;-62
2022/01/26 00:20:54;;;;;;;81.40;40.45;;;5.70;99.90;;;;;;4136104;28;20068;-62
2022/01/26 00:23:04;;;;;;;95.63;45.92;;;5.80;99.90;;;;;;4138581;28;20393;-62
2022/01/26 00:27:36;;;;;;;95.15;46.70;;;5.70;99.90;;;;;;4135341;28;20058;-62
2022/01/26 00:29:40;;;;;;;93.70;46.58;;;5.60;99.90;;;;;;4137083;28;20129;-62
2022/01/26 00:38:44;;;;;;;97.53;49.53;;;5.60;99.90;;;;;;4143738;28;20053;-62
2022/01/26 00:40:52;;;;;;;104.45;52.58;;;5.50;99.90;;;;;;4144864;28;20113;-62
2022/01/26 00:42:57;;;;;;;103.35;51.50;;;5.50;99.90;;;;;;4142901;28;20042;-62
2022/01/26 00:44:57;;;;;;;115.50;54.97;;;5.50;99.90;;;;;;4142318;28;20386;-62
2022/01/26 00:46:59;;;;;;;118.55;56.30;;;5.50;99.90;;;;;;4142480;28;20049;-61
2022/01/26 00:48:59;;;;;;;120.20;57.37;;;5.50;99.90;;;;;;4139952;28;20050;-61
2022/01/26 00:51:04;;;;;;;121.20;55.85;;;5.50;99.90;;;;;;4143313;28;20269;-62
2022/01/26 00:53:06;;;;;;;117.00;55.03;;;5.40;99.90;;;;;;4141699;28;20038;-62
2022/01/26 00:55:10;;;;;;;113.78;55.13;;;5.50;99.90;;;;;;4139980;28;20076;-62
2022/01/26 00:57:11;;;;;;;114.45;55.22;;;5.50;99.90;;;;;;4139184;28;20046;-62
2022/01/26 00:59:12;;;;;;;111.80;54.67;;;5.50;99.90;;;;;;4139492;28;20038;-61
2022/01/26 01:01:13;;;;;;;122.50;59.30;;;5.50;99.90;;;;;;4141954;28;20507;-62
2022/01/26 01:03:14;;;;;;;128.30;58.03;;;5.40;99.90;;;;;;4145051;28;20374;-62
2022/01/26 01:05:21;;;;;;;144.65;64.40;;;5.40;99.90;;;;;;4144339;28;20045;-62
2022/01/26 01:07:23;;;;;;;137.70;62.50;;;5.30;99.90;;;;;;4139498;28;20085;-61
2022/01/26 01:09:25;;;;;;;130.17;60.70;;;5.20;99.90;;;;;;4145359;28;20042;-62
2022/01/26 01:11:26;;;;;;;125.63;58.22;;;5.20;99.90;;;;;;4145879;28;20045;-61
2022/01/26 01:13:34;;;;;;;127.57;60.00;;;5.30;99.90;;;;;;4140995;28;20038;-62
2022/01/26 01:15:35;;;;;;;121.00;57.53;;;5.20;99.90;;;;;;4140520;28;20053;-62
2022/01/26 01:17:43;;;;;;;130.93;59.72;;;5.30;99.90;;;;;;4140139;28;20393;-62
2022/01/26 01:20:01;;;;;;;127.65;59.35;;;5.30;99.90;;;;;;4145028;28;20053;-62
2022/01/26 01:29:34;;;;;;;121.82;58.92;;;5.40;99.90;;;;;;4135678;28;20046;-63
2022/01/26 01:31:44;;;;;;;116.63;55.38;;;5.40;99.90;;;;;;4139762;28;20046;-61
2022/01/26 01:33:48;;;;;;;124.53;57.00;;;5.40;99.90;;;;;;4143372;28;20038;-62
2022/01/26 01:35:49;;;;;;;132.48;59.65;;;5.50;99.90;;;;;;4140120;28;20050;-62
2022/01/26 01:37:50;;;;;;;122.45;57.78;;;5.50;99.90;;;;;;4141827;28;20058;-62
2022/01/26 01:39:51;;;;;;;133.88;60.75;;;5.60;99.90;;;;;;4144312;28;20397;-62
2022/01/26 01:41:51;;;;;;;146.90;66.00;;;5.60;99.90;;;;;;4138666;28;20037;-62
2022/01/26 01:43:52;;;;;;;139.32;63.72;;;5.50;99.90;;;;;;4141532;28;20062;-61
2022/01/26 01:45:55;;;;;;;137.93;64.80;;;5.50;99.90;;;;;;4141396;28;20397;-63
2022/01/26 01:47:55;;;;;;;138.70;64.78;;;5.50;99.90;;;;;;4141169;28;20045;-62
2022/01/26 01:49:57;;;;;;;128.77;59.95;;;5.40;99.90;;;;;;4140369;28;20220;-62
2022/01/26 01:52:02;;;;;;;129.88;61.15;;;5.50;99.90;;;;;;4137492;28;20509;-62
2022/01/26 01:54:03;;;;;;;127.35;56.63;;;5.50;99.90;;;;;;4127438;28;20042;-64
2022/01/26 01:56:05;;;;;;;125.90;59.33;;;5.50;99.90;;;;;;4126300;28;20053;-62
2022/01/26 01:58:07;;;;;;;137.60;62.97;;;5.50;99.90;;;;;;4146210;28;20042;-61
2022/01/26 02:00:08;;;;;;;137.73;63.58;;;5.50;99.90;;;;;;4141954;28;20113;-63
2022/01/26 02:02:09;;;;;;;127.45;59.83;;;5.40;99.90;;;;;;4133265;28;20038;-62
2022/01/26 02:04:10;;;;;;;132.07;59.22;;;5.40;99.90;;;;;;4133277;28;20796;-62
2022/01/26 02:06:10;;;;;;;136.00;62.33;;;5.40;99.90;;;;;;4139349;28;20038;-62
2022/01/26 02:08:11;;;;;;;141.05;65.05;;;5.40;99.90;;;;;;4141702;28;20093;-62
2022/01/26 02:10:12;;;;;;;137.73;62.53;;;5.40;99.90;;;;;;4138244;28;20034;-61
2022/01/26 02:12:20;;;;;;;120.05;56.80;;;5.40;99.90;;;;;;4136831;28;20039;-62
2022/01/26 02:14:27;;;;;;;115.55;55.10;;;5.50;99.90;;;;;;4140859;28;20134;-62
2022/01/26 02:16:42;;;;;;;124.35;58.42;;;5.50;99.90;;;;;;4137754;28;20069;-61
2022/01/26 02:51:22;;;;;;;119.63;55.25;;;5.30;99.90;;;;;;4135692;28;20466;-61
2022/01/26 02:56:06;;;;;;;121.78;55.47;;;5.30;99.90;;;;;;4108018;28;20062;-62
2022/01/26 03:00:42;;;;;;;133.82;61.65;;;5.30;99.90;;;;;;4115583;28;20051;-62
2022/01/26 03:03:10;;;;;;;128.93;59.70;;;5.30;99.90;;;;;;4141829;28;20037;-62
2022/01/26 03:05:13;;;;;;;125.30;56.58;;;5.30;99.90;;;;;;4136840;28;20433;-63
2022/01/26 03:09:19;;;;;;;122.30;56.38;;;5.30;99.90;;;;;;4141813;28;20489;-62
2022/01/26 03:11:25;;;;;;;130.75;58.60;;;5.30;99.90;;;;;;4139215;28;20046;-61
2022/01/26 03:13:30;;;;;;;135.85;60.50;;;5.30;99.90;;;;;;4141707;28;20042;-62
2022/01/26 03:15:37;;;;;;;131.60;59.35;;;5.30;99.90;;;;;;4140090;28;20100;-61
2022/01/26 03:18:02;;;;;;;115.63;53.00;;;5.20;99.90;;;;;;4141486;28;20046;-62
2022/01/26 03:20:07;;;;;;;;;;;5.30;99.90;;;;;;4141619;28;20504;-62
2022/01/26 03:35:41;;;;;;;133.50;59.22;;;5.20;99.90;;;;;;4139874;28;20092;-62
2022/01/26 03:37:52;;;;;;;152.55;65.43;;;5.10;99.90;;;;;;4136105;28;20037;-62
2022/01/26 03:39:53;;;;;;;150.27;63.72;;;5.10;99.90;;;;;;4145284;28;20045;-62
2022/01/26 03:43:54;;;;;;;161.63;68.43;;;5.00;99.90;;;;;;4132072;28;20486;-62
2022/01/26 03:45:55;;;;;;;138.07;61.85;;;4.90;99.90;;;;;;4138737;28;20038;-62
2022/01/26 03:47:55;;;;;;;143.30;61.58;;;4.90;99.90;;;;;;4141217;28;20038;-61
2022/01/26 03:49:56;;;;;;;140.60;59.47;;;4.90;99.90;;;;;;4139386;28;20466;-61
2022/01/26 03:51:57;;;;;;;145.18;60.85;;;4.90;99.90;;;;;;4129656;28;20049;-62
2022/01/26 03:53:57;;;;;;;152.75;63.55;;;4.90;99.90;;;;;;4131006;28;20034;-61
2022/01/26 03:55:58;;;;;;;134.50;60.05;;;4.90;99.90;;;;;;4140029;28;20421;-61
2022/01/26 03:57:58;;;;;;;120.70;53.08;;;4.90;99.90;;;;;;4136856;28;20130;-62
2022/01/26 03:59:59;;;;;;;135.00;59.20;;;5.00;99.90;;;;;;4140010;28;20109;-61
2022/01/26 04:02:00;;;;;;;135.02;59.22;;;5.00;99.90;;;;;;4143037;28;20123;-62
2022/01/26 04:04:01;;;;;;;125.60;55.30;;;5.00;99.90;;;;;;4138220;28;20061;-61
2022/01/26 04:06:01;;;;;;;135.60;58.25;;;5.00;99.90;;;;;;4135895;28;20046;-62
2022/01/26 04:08:08;;;;;;;126.10;55.65;;;5.00;99.90;;;;;;4139814;28;20442;-61
2022/01/26 04:10:21;;;;;;;122.28;54.22;;;5.00;99.90;;;;;;4136591;28;20048;-63
2022/01/26 04:12:22;;;;;;;127.82;54.70;;;5.10;99.90;;;;;;4142771;28;20107;-62
2022/01/26 04:14:28;;;;;;;124.65;54.47;;;5.10;99.90;;;;;;4141102;28;20038;-61
2022/01/26 04:16:28;;;;;;;134.68;61.38;;;5.10;99.90;;;;;;4138901;28;20038;-61
2022/01/26 04:18:34;;;;;;;130.75;57.13;;;5.10;99.90;;;;;;4135399;28;20030;-61
2022/01/26 04:20:40;;;;;;;136.43;57.55;;;5.10;99.90;;;;;;4140289;28;20041;-62
2022/01/26 04:22:51;;;;;;;136.85;59.35;;;5.10;99.90;;;;;;4136671;28;20389;-62
2022/01/26 04:24:54;;;;;;;125.07;55.10;;;5.00;99.90;;;;;;4135176;28;20070;-62
2022/01/26 04:27:00;;;;;;;131.65;57.83;;;5.10;99.90;;;;;;4139343;28;20954;-62
2022/01/26 04:29:07;;;;;;;126.28;54.97;;;5.10;99.90;;;;;;4139667;28;20049;-61
2022/01/26 04:31:09;;;;;;;129.52;54.88;;;5.10;99.90;;;;;;4131952;28;20046;-62
2022/01/26 04:33:09;;;;;;;116.53;52.93;;;5.10;99.90;;;;;;4134733;28;20042;-62
2022/01/26 04:35:11;;;;;;;128.43;57.08;;;5.10;99.90;;;;;;4138818;28;20409;-64
2022/01/26 04:39:17;;;;;;;127.78;57.47;;;5.10;99.90;;;;;;4144398;28;20089;-62
2022/01/26 04:43:47;;;;;;;132.85;57.17;;;5.10;99.90;;;;;;4137613;28;20064;-62
2022/01/26 04:45:48;;;;;;;141.23;60.63;;;5.10;99.90;;;;;;4130391;28;20045;-62
2022/01/26 04:47:49;;;;;;;154.02;62.75;;;5.10;99.90;;;;;;4130797;28;20406;-62
2022/01/26 04:49:49;;;;;;;131.80;56.97;;;5.00;99.90;;;;;;4134848;28;20030;-62
2022/01/26 04:51:50;;;;;;;145.93;60.33;;;5.00;99.90;;;;;;4134449;28;20034;-61
2022/01/26 04:53:50;;;;;;;142.98;60.47;;;5.00;99.90;;;;;;4140795;28;20038;-61
2022/01/26 04:55:52;;;;;;;135.82;58.80;;;4.90;99.90;;;;;;4139773;28;20674;-62
2022/01/26 04:57:52;;;;;;;133.25;58.03;;;4.90;99.90;;;;;;4132462;28;20499;-62
2022/01/26 04:59:53;;;;;;;123.07;56.28;;;4.90;99.90;;;;;;4139806;28;20062;-61
2022/01/26 05:01:53;;;;;;;143.98;62.80;;;5.00;99.90;;;;;;4139241;28;20038;-61
2022/01/26 05:03:54;;;;;;;144.20;59.20;;;5.00;99.90;;;;;;4140482;28;20039;-61
2022/01/26 05:05:54;;;;;;;143.95;63.42;;;4.90;99.90;;;;;;4134309;28;20085;-62
2022/01/26 05:07:55;;;;;;;149.43;64.22;;;4.80;99.90;;;;;;4138789;28;20133;-61
2022/01/26 05:09:56;;;;;;;137.38;60.03;;;4.70;99.90;;;;;;4132497;28;20034;-62
2022/01/26 05:11:57;;;;;;;134.10;58.78;;;4.70;99.90;;;;;;4140084;28;20030;-62
2022/01/26 05:13:58;;;;;;;150.98;65.03;;;4.70;99.90;;;;;;4138176;28;20111;-62
2022/01/26 05:15:59;;;;;;;140.68;58.50;;;4.70;99.90;;;;;;4136730;28;20077;-61
2022/01/26 05:18:00;;;;;;;146.05;61.42;;;4.80;99.90;;;;;;4141807;28;20034;-61
2022/01/26 05:20:01;;;;;;;138.88;59.33;;;4.80;99.90;;;;;;4140696;28;20034;-62
2022/01/26 05:22:01;;;;;;;138.48;58.97;;;4.80;99.90;;;;;;4143815;28;20066;-60
2022/01/26 05:24:02;;;;;;;144.93;61.20;;;4.80;99.90;;;;;;4135402;28;20505;-61
2022/01/26 05:26:03;;;;;;;142.65;61.58;;;4.80;99.90;;;;;;4142285;28;20049;-62
2022/01/26 05:28:04;;;;;;;139.88;58.42;;;4.80;99.90;;;;;;4142290;28;20046;-61
2022/01/26 05:30:07;;;;;;;140.82;59.55;;;4.70;99.90;;;;;;4147162;28;20053;-62
2022/01/26 05:32:07;;;;;;;131.30;57.83;;;4.70;99.90;;;;;;4147262;28;20474;-62
2022/01/26 05:34:08;;;;;;;133.77;55.53;;;4.70;99.90;;;;;;4147230;28;20116;-62
2022/01/26 05:36:09;;;;;;;121.78;52.13;;;4.70;99.90;;;;;;4142387;28;20121;-62
2022/01/26 05:38:09;;;;;;;131.80;55.22;;;4.70;99.90;;;;;;4141389;28;20034;-61
2022/01/26 05:40:11;;;;;;;127.70;54.33;;;4.80;99.90;;;;;;4138547;28;20061;-63
2022/01/26 05:42:12;;;;;;;124.60;52.55;;;4.80;99.90;;;;;;4144027;28;20529;-61
2022/01/26 05:44:13;;;;;;;129.50;53.67;;;4.80;99.90;;;;;;4137127;28;20061;-62
2022/01/26 05:46:22;;;;;;;134.02;56.17;;;4.90;99.90;;;;;;4139892;28;20046;-61
2022/01/26 05:48:23;;;;;;;127.90;53.50;;;4.90;99.90;;;;;;4141657;28;20072;-61
2022/01/26 05:50:23;;;;;;;123.45;50.72;;;4.90;99.90;;;;;;4140574;28;20485;-62
2022/01/26 05:52:24;;;;;;;124.03;54.60;;;4.90;99.90;;;;;;4139662;28;20401;-61
2022/01/26 05:54:25;;;;;;;122.18;51.38;;;4.90;99.90;;;;;;4134786;28;20030;-61
2022/01/26 05:56:25;;;;;;;134.38;57.05;;;5.00;99.90;;;;;;4140695;28;20050;-61
2022/01/26 05:58:26;;;;;;;132.15;56.33;;;5.00;99.90;;;;;;4133597;28;20038;-62
2022/01/26 06:00:26;;;;;;;128.63;55.42;;;4.90;99.90;;;;;;4137859;28;20430;-61
2022/01/26 06:02:27;;;;;;;125.53;53.47;;;4.90;99.90;;;;;;4135028;28;20047;-61
2022/01/26 06:04:28;;;;;;;138.57;58.83;;;5.00;99.90;;;;;;4144679;28;20033;-61
2022/01/26 06:06:29;;;;;;;135.95;55.05;;;5.00;99.90;;;;;;4137709;28;20042;-61
2022/01/26 06:08:29;;;;;;;137.13;58.50;;;4.90;99.90;;;;;;4141824;28;20034;-61
2022/01/26 06:10:30;;;;;;;139.00;56.50;;;4.90;99.90;;;;;;4139044;28;20049;-61
2022/01/26 06:12:33;;;;;;;129.13;53.92;;;5.00;99.90;;;;;;4134819;28;20097;-61
2022/01/26 06:14:35;;;;;;;132.43;54.22;;;4.90;99.90;;;;;;4140251;28;20026;-61
2022/01/26 06:16:36;;;;;;;116.80;49.47;;;4.90;99.90;;;;;;4138564;28;20899;-61
2022/01/26 06:18:37;;;;;;;140.60;57.40;;;4.90;99.90;;;;;;4141934;28;20332;-63
2022/01/26 06:20:38;;;;;;;130.80;54.95;;;4.90;99.90;;;;;;4145959;28;20065;-62
2022/01/26 06:22:39;;;;;;;131.00;55.42;;;4.90;99.90;;;;;;4143170;28;20044;-62
2022/01/26 06:24:39;;;;;;;137.88;56.40;;;4.90;99.90;;;;;;4142269;28;20037;-62
2022/01/26 06:26:41;;;;;;;133.95;55.17;;;4.80;99.90;;;;;;4146159;28;20548;-62
2022/01/26 06:28:42;;;;;;;127.78;53.30;;;4.80;99.90;;;;;;4142685;28;20035;-61
2022/01/26 06:30:47;;;;;;;141.60;57.58;;;4.80;99.90;;;;;;4139700;28;20492;-62
2022/01/26 06:32:48;;;;;;;145.07;58.47;;;4.80;99.90;;;;;;4141060;28;21046;-61
2022/01/26 06:34:49;;;;;;;137.43;55.50;;;4.80;99.90;;;;;;4136235;28;20043;-62
2022/01/26 06:36:49;;;;;;;132.27;55.05;;;4.80;99.90;;;;;;4136436;28;20413;-62
2022/01/26 06:38:50;;;;;;;142.95;55.75;;;4.80;99.90;;;;;;4141296;28;20034;-63
2022/01/26 06:40:52;;;;;;;133.18;55.05;;;4.80;99.90;;;;;;4138468;28;20061;-63
2022/01/26 06:42:57;;;;;;;138.35;55.60;;;4.70;99.90;;;;;;4142296;28;20425;-62
2022/01/26 06:45:13;;;;;;;137.30;55.63;;;4.70;99.90;;;;;;4141694;28;20409;-62
2022/01/26 06:51:27;;;;;;;143.90;57.38;;;4.70;99.90;;;;;;4141890;28;20540;-61
2022/01/26 06:53:28;;;;;;;139.90;58.13;;;4.70;99.90;;;;;;4123077;28;20090;-60
2022/01/26 06:55:28;;;;;;;147.90;59.35;;;4.70;99.90;;;;;;4140321;28;20054;-61
2022/01/26 06:57:29;;;;;;;127.25;52.75;;;4.60;99.90;;;;;;4138583;28;20049;-61
2022/01/26 06:59:30;;;;;;;126.70;53.22;;;4.60;99.90;;;;;;4137806;28;20030;-61
2022/01/26 07:01:31;;;;;;;136.70;55.38;;;4.50;99.90;;;;;;4138925;28;20034;-61
2022/01/26 07:03:31;;;;;;;132.02;52.42;;;4.60;99.90;;;;;;4141130;28;20046;-61
2022/01/26 07:05:32;;;;;;;130.85;52.05;;;4.60;99.90;;;;;;4140671;28;20046;-64
2022/01/26 07:07:33;;;;;;;131.68;50.92;;;4.60;99.90;;;;;;4140236;28;20042;-61
2022/01/26 07:09:33;;;;;;;133.63;52.80;;;4.60;99.90;;;;;;4138991;28;20034;-62
2022/01/26 07:11:34;;;;;;;121.45;50.80;;;4.60;99.90;;;;;;4136133;28;20033;-61
2022/01/26 07:13:34;;;;;;;130.95;52.70;;;4.70;99.90;;;;;;4137912;28;20046;-62
2022/01/26 07:22:20;;;;;;;127.97;50.47;;;4.70;99.90;;;;;;4145409;28;20030;-62
2022/01/26 07:24:21;;;;;;;136.10;53.58;;;4.70;99.90;;;;;;4136828;28;20091;-62
2022/01/26 07:26:25;;;;;;;138.68;56.03;;;4.70;99.90;;;;;;4137313;28;20112;-61
2022/01/26 07:28:28;;;;;;;159.50;60.67;;;4.60;99.90;;;;;;4137379;28;20041;-61
2022/01/26 07:30:36;;;;;;;140.43;57.30;;;4.60;99.90;;;;;;4142977;28;20511;-62
2022/01/26 07:32:37;;;;;;;148.68;58.53;;;4.60;99.90;;;;;;4139224;28;20381;-62
2022/01/26 07:34:39;;;;;;;149.60;56.85;;;4.50;99.90;;;;;;4142265;28;20042;-63
2022/01/26 07:36:41;;;;;;;146.80;57.15;;;4.50;99.90;;;;;;4138158;28;20686;-61
2022/01/26 07:38:42;;;;;;;143.55;56.25;;;4.50;99.90;;;;;;4139672;28;20065;-62
2022/01/26 07:40:42;;;;;;;134.00;53.58;;;4.40;99.90;;;;;;4136785;28;20108;-63
2022/01/26 07:42:43;;;;;;;143.45;57.67;;;4.40;99.90;;;;;;4145034;28;20112;-62
2022/01/26 07:44:43;;;;;;;133.13;53.38;;;4.40;99.90;;;;;;4144042;28;20046;-62
2022/01/26 07:46:44;;;;;;;142.80;53.92;;;4.40;99.90;;;;;;4142916;28;20393;-63
2022/01/26 07:48:45;;;;;;;133.70;52.40;;;4.50;99.90;;;;;;4135513;28;20101;-63
2022/01/26 07:50:45;;;;;;;140.25;56.00;;;4.50;99.90;;;;;;4135783;28;20044;-62
2022/01/26 07:52:46;;;;;;;139.82;54.80;;;4.50;99.90;;;;;;4145229;28;20038;-61
2022/01/26 07:54:51;;;;;;;133.85;52.97;;;4.50;99.90;;;;;;4144154;28;20545;-62
2022/01/26 07:56:51;;;;;;;144.00;55.72;;;4.50;99.90;;;;;;4140005;28;20037;-61
2022/01/26 07:58:52;;;;;;;146.40;55.53;;;4.50;99.90;;;;;;4139582;28;20034;-62
2022/01/26 08:00:52;;;;;;;151.40;57.83;;;4.50;99.90;;;;;;4142650;28;20497;-61
2022/01/26 08:02:53;;;;;;;141.15;54.92;;;4.50;99.90;;;;;;4139799;28;20089;-62
2022/01/26 08:04:53;;;;;;;137.02;54.35;;;4.50;99.90;;;;;;4137795;28;20081;-62
2022/01/26 08:06:54;;;;;;;151.32;59.28;;;4.50;99.90;;;;;;4139617;28;20441;-61
2022/01/26 08:08:55;;;;;;;134.05;53.90;;;4.40;99.90;;;;;;4139358;28;20039;-62
2022/01/26 08:10:56;;;;;;;141.30;52.60;;;4.40;99.90;;;;;;4136682;28;20029;-62
2022/01/26 08:12:57;;;;;;;136.20;54.85;;;4.50;99.90;;;;;;4134739;28;20030;-62
2022/01/26 08:14:58;;;;;;;145.23;56.97;;;4.50;99.90;;;;;;4143131;28;20100;-62
2022/01/26 08:16:58;;;;;;;139.00;54.38;;;4.40;99.90;;;;;;4141377;28;20388;-62
2022/01/26 08:18:59;;;;;;;136.50;54.45;;;4.40;99.90;;;;;;4140579;28;20042;-61
2022/01/26 08:21:04;;;;;;;149.98;57.33;;;4.50;99.90;;;;;;4134951;28;20039;-62
2022/01/26 08:23:06;;;;;;;140.35;54.53;;;4.50;99.90;;;;;;4137095;28;20046;-61
2022/01/26 08:25:07;;;;;;;141.50;56.50;;;4.50;99.90;;;;;;4139545;28;20053;-62
2022/01/26 08:27:11;;;;;;;154.80;60.25;;;4.60;99.90;;;;;;4141304;28;20042;-62
2022/01/26 08:29:25;;;;;;;145.48;59.42;;;4.50;99.90;;;;;;4137370;28;20152;-62
2022/01/26 08:31:26;;;;;;;151.20;59.70;;;4.50;99.90;;;;;;4139867;28;20121;-61
2022/01/26 08:33:27;;;;;;;145.63;56.72;;;4.50;99.90;;;;;;4142052;28;20081;-62
2022/01/26 08:35:27;;;;;;;142.18;55.95;;;4.50;99.90;;;;;;4141664;28;20042;-62
2022/01/26 08:37:28;;;;;;;141.77;54.42;;;4.50;99.90;;;;;;4142343;28;20046;-62
2022/01/26 08:39:29;;;;;;;133.02;54.88;;;4.60;99.90;;;;;;4142067;28;20046;-62
2022/01/26 08:41:29;;;;;;;161.40;61.22;;;4.60;99.90;;;;;;4139060;28;20120;-62
2022/01/26 08:43:30;;;;;;;152.40;60.38;;;4.60;99.90;;;;;;4140226;28;20113;-62
2022/01/26 08:45:31;;;;;;;153.10;61.13;;;4.60;99.90;;;;;;4139157;28;20057;-62
2022/01/26 08:47:32;;;;;;;162.57;61.93;;;4.60;99.90;;;;;;4141683;28;20042;-62
2022/01/26 08:49:33;;;;;;;157.10;61.78;;;4.50;99.90;;;;;;4142411;28;20264;-61
2022/01/26 08:51:34;;;;;;;164.50;62.67;;;4.60;99.90;;;;;;4140909;28;20042;-61
2022/01/26 08:53:34;;;;;;;151.77;59.42;;;4.50;99.90;;;;;;4140497;28;20472;-61
2022/01/26 08:55:36;;;;;;;161.90;63.85;;;4.60;99.90;;;;;;4140021;28;20437;-62
2022/01/26 08:57:38;;;;;;;154.27;60.72;;;4.50;99.90;;;;;;4143907;28;20030;-61
2022/01/26 08:59:40;;;;;;;147.77;57.70;;;4.50;99.90;;;;;;4144829;28;20037;-61
2022/01/26 09:01:41;;;;;;;;;;;4.60;99.90;;;;;;4143869;28;20045;-62
2022/01/26 09:03:43;;;;;;;146.25;56.35;;;4.60;99.90;;;;;;4145891;28;20378;-62
2022/01/26 09:05:43;;;;;;;145.00;56.75;;;4.60;99.90;;;;;;4143402;28;20092;-62
2022/01/26 09:07:46;;;;;;;137.35;55.78;;;4.60;99.90;;;;;;4143316;28;20038;-62
2022/01/26 09:09:47;;;;;;;150.25;57.20;;;4.60;99.90;;;;;;4143141;28;20074;-62
2022/01/26 09:11:49;;;;;;;162.98;62.00;;;4.60;99.90;;;;;;4141789;28;20041;-62
2022/01/26 09:13:56;;;;;;;145.68;57.88;;;4.60;99.90;;;;;;4143941;28;20041;-62
2022/01/26 09:15:58;;;;;;;134.93;55.70;;;4.60;99.90;;;;;;4140422;28;20046;-62
2022/01/26 09:18:02;;;;;;;139.30;55.28;;;4.60;99.90;;;;;;4143787;28;20113;-62
2022/01/26 09:20:06;;;;;;;146.20;56.65;;;4.70;99.90;;;;;;4144775;28;20042;-62
2022/01/26 09:22:09;;;;;;;148.07;58.58;;;4.60;99.90;;;;;;4143415;28;20034;-62
2022/01/26 09:24:09;;;;;;;148.20;57.60;;;4.60;99.90;;;;;;4143396;28;20087;-62
2022/01/26 09:26:10;;;;;;;153.10;59.38;;;4.60;99.90;;;;;;4144214;28;20076;-62
2022/01/26 09:28:11;;;;;;;165.60;62.88;;;4.60;99.90;;;;;;4142985;28;20038;-62
2022/01/26 09:30:12;;;;;;;162.65;63.35;;;4.60;99.90;;;;;;4144436;28;20397;-62
2022/01/26 09:32:14;;;;;;;152.50;60.97;;;4.60;99.90;;;;;;4143698;28;20036;-62
2022/01/26 09:34:17;;;;;;;151.70;56.85;;;4.60;99.90;;;;;;4142912;28;20061;-62
2022/01/26 09:36:17;;;;;;;161.85;61.05;;;4.60;99.90;;;;;;4142565;28;20058;-61
2022/01/26 09:38:18;;;;;;;163.45;62.58;;;4.60;99.90;;;;;;4144923;28;20501;-60
2022/01/26 09:40:18;;;;;;;155.27;58.15;;;4.60;99.90;;;;;;4144916;28;20128;-62
2022/01/26 09:42:19;;;;;;;153.60;58.97;;;4.60;99.90;;;;;;4144033;28;21093;-61
2022/01/26 09:44:20;;;;;;;162.75;62.45;;;4.60;99.90;;;;;;4144963;28;20505;-61
2022/01/26 09:46:20;;;;;;;164.80;63.38;;;4.60;99.90;;;;;;4144433;28;20088;-62
2022/01/26 09:48:21;;;;;;;157.75;60.10;;;4.60;99.90;;;;;;4143617;28;20073;-61
2022/01/26 09:50:22;;;;;;;146.93;58.38;;;4.60;99.90;;;;;;4142061;28;20045;-61
2022/01/26 09:52:35;;;;;;;159.52;62.10;;;4.60;99.90;;;;;;4141270;28;20045;-62
2022/01/26 09:54:35;;;;;;;147.75;56.90;;;4.70;99.90;;;;;;4142429;28;20140;-61
2022/01/26 09:56:36;;;;;;;155.35;57.75;;;4.70;99.90;;;;;;4142808;28;20038;-62
2022/01/26 09:58:36;;;;;;;172.40;66.22;;;4.70;99.90;;;;;;4143455;28;20121;-61
2022/01/26 10:00:37;;;;;;;154.63;60.65;;;4.60;99.90;;;;;;4142329;28;20038;-61
2022/01/26 10:02:39;;;;;;;160.85;59.33;;;4.60;99.90;;;;;;4144372;28;20061;-61
2022/01/26 10:04:40;;;;;;;154.85;59.70;;;4.60;99.90;;;;;;4143669;28;20045;-63
2022/01/26 10:06:41;;;;;;;147.82;56.83;;;4.60;99.90;;;;;;4142526;28;20477;-62
2022/01/26 10:15:34;;;;;;;169.90;63.78;;;4.60;99.90;;;;;;4143495;28;20054;-62
2022/01/26 10:17:35;;;;;;;167.75;60.85;;;4.60;99.90;;;;;;4143172;28;20049;-61
2022/01/26 10:19:36;;;;;;;157.13;59.78;;;4.50;99.90;;;;;;4143180;28;20033;-62
2022/01/26 10:21:47;;;;;;;168.85;62.33;;;4.50;99.90;;;;;;4139580;28;20030;-61
2022/01/26 10:23:48;;;;;;;167.07;62.25;;;4.50;99.90;;;;;;4143127;28;20034;-62
2022/01/26 10:26:07;;;;;;;166.13;62.90;;;4.40;99.90;;;;;;4143412;28;20528;-62
2022/01/26 10:28:13;;;;;;;142.98;55.97;;;4.40;99.90;;;;;;4144759;28;20038;-61
2022/01/26 10:30:15;;;;;;;145.02;56.50;;;4.40;99.90;;;;;;4138339;28;20036;-62
2022/01/26 10:32:17;;;;;;;160.35;60.67;;;4.40;99.90;;;;;;4140055;28;20046;-62
2022/01/26 10:34:22;;;;;;;149.88;57.78;;;4.50;99.90;;;;;;4143438;28;20034;-61
2022/01/26 10:36:23;;;;;;;152.85;56.97;;;4.50;99.90;;;;;;4142462;28;20058;-62
2022/01/26 10:38:24;;;;;;;165.18;61.85;;;4.50;99.90;;;;;;4143934;28;20046;-63
2022/01/26 10:40:27;;;;;;;171.50;61.13;;;4.50;99.90;;;;;;4142191;28;20417;-62
2022/01/26 10:42:28;;;;;;;152.25;57.88;;;4.50;99.90;;;;;;4142945;28;20121;-63
2022/01/26 10:44:42;;;;;;;167.90;63.53;;;4.50;99.90;;;;;;4142868;28;20493;-61
2022/01/26 10:46:44;;;;;;;140.18;54.47;;;4.50;99.90;;;;;;4142484;28;20038;-61
2022/01/26 10:49:09;;;;;;;159.88;59.03;;;4.50;99.90;;;;;;4140564;28;20042;-61
2022/01/26 10:53:23;;;;;;;148.10;56.15;;;4.50;99.90;;;;;;4142289;28;20058;-61
2022/01/26 10:55:24;;;;;;;143.02;54.28;;;4.60;99.90;;;;;;4138884;28;20050;-61
2022/01/26 10:57:25;;;;;;;132.43;49.25;;;4.60;99.90;;;;;;4142564;28;20042;-61
2022/01/26 10:59:26;;;;;;;135.02;53.65;;;4.70;99.90;;;;;;4140078;28;20042;-62
2022/01/26 11:01:26;;;;;;;147.73;55.65;;;4.70;99.90;;;;;;4141343;28;20168;-62
2022/01/26 11:03:28;;;;;;;136.23;54.63;;;4.70;99.90;;;;;;4142732;28;20042;-61
2022/01/26 11:05:28;;;;;;;143.90;54.20;;;4.60;99.90;;;;;;4141338;28;20532;-62
2022/01/26 11:07:40;;;;;;;158.18;58.30;;;4.70;99.90;;;;;;4142719;28;20042;-61
2022/01/26 11:09:47;;;;;;;139.02;53.95;;;4.70;99.90;;;;;;4136470;28;20068;-62
2022/01/26 11:12:01;;;;;;;123.70;47.30;;;4.70;99.90;;;;;;4142334;28;20041;-62
2022/01/26 11:14:12;;;;;;;132.65;50.67;;;4.70;99.90;;;;;;4143553;28;20038;-61
2022/01/26 11:16:14;;;;;;;134.88;51.92;;;4.70;99.90;;;;;;4141324;28;20605;-62
2022/01/26 11:18:27;;;;;;;121.93;48.90;;;4.70;99.90;;;;;;4142840;28;20112;-62
2022/01/26 11:20:31;;;;;;;136.55;51.45;;;4.80;99.90;;;;;;4140753;28;20436;-61
2022/01/26 11:22:32;;;;;;;130.05;52.05;;;4.80;99.90;;;;;;4140977;28;21466;-61
2022/01/26 11:24:44;;;;;;;125.97;48.30;;;4.80;99.90;;;;;;4141014;28;20552;-61
2022/01/26 11:26:47;;;;;;;141.40;54.03;;;4.80;99.90;;;;;;4142276;28;20041;-62
2022/01/26 11:28:48;;;;;;;140.23;52.72;;;4.80;99.90;;;;;;4142953;28;20030;-62
2022/01/26 11:30:50;;;;;;;144.40;52.75;;;4.80;99.90;;;;;;4140574;28;20037;-62
2022/01/26 11:32:57;;;;;;;139.25;51.65;;;4.70;99.90;;;;;;4141647;28;20038;-62
2022/01/26 11:34:58;;;;;;;123.35;48.25;;;4.70;99.90;;;;;;4139980;28;20104;-62
2022/01/26 11:36:59;;;;;;;128.25;49.13;;;4.80;99.90;;;;;;4140178;28;20046;-61
2022/01/26 11:46:10;;;;;;;117.93;44.80;;;4.80;99.90;;;;;;4140220;28;20049;-61
2022/01/26 11:48:24;;;;;;;125.47;49.50;;;4.80;99.90;;;;;;4142144;28;20130;-61
2022/01/26 11:50:26;;;;;;;129.48;49.30;;;4.80;99.90;;;;;;4139940;28;20069;-61
2022/01/26 11:52:29;;;;;;;132.43;50.30;;;4.70;99.90;;;;;;4142346;28;20065;-61
2022/01/26 11:54:50;;;;;;;137.45;49.80;;;4.80;99.90;;;;;;4140715;28;20783;-61
2022/01/26 11:57:00;;;;;;;135.38;50.85;;;4.80;99.90;;;;;;4138523;28;20053;-61
2022/01/26 11:59:01;;;;;;;145.88;56.15;;;4.80;99.90;;;;;;4140955;28;20056;-62
2022/01/26 12:01:18;;;;;;;128.05;49.75;;;4.70;99.90;;;;;;4140277;28;20053;-61
2022/01/26 12:03:31;;;;;;;133.32;51.03;;;4.70;99.90;;;;;;4141275;28;20065;-62
2022/01/26 12:05:41;;;;;;;;;;;4.70;99.90;;;;;;4142784;28;20046;-61
2022/01/26 12:08:00;;;;;;;138.52;51.38;;;4.70;99.90;;;;;;4138978;28;19910;-62
2022/01/26 12:10:03;;;;;;;114.70;44.50;;;4.60;99.90;;;;;;4142323;28;20057;-61
2022/01/26 12:12:05;;;;;;;119.15;46.90;;;4.60;99.90;;;;;;4138749;28;20504;-61
2022/01/26 12:14:12;;;;;;;123.00;45.80;;;4.60;99.90;;;;;;4143026;28;20042;-62